createdAt,value
2022-12-08T00:01:27.907Z,100273.75
2022-12-08T00:03:55.232Z,100272.97
2022-12-08T00:06:46.973Z,100271.22
2022-12-08T00:09:37.861Z,100262.66
2022-12-08T00:12:05.978Z,100262.66
2022-12-08T00:14:37.922Z,100257.56
2022-12-08T00:17:06.244Z,100256.69
2022-12-08T00:19:33.362Z,100252.41
2022-12-08T00:21:59.953Z,100257.53
2022-12-08T00:24:31.543Z,100257.56
2022-12-08T00:26:57.813Z,100241.41
2022-12-08T00:29:24.156Z,100238.72
2022-12-08T00:31:50.540Z,100245.59
2022-12-08T00:34:17.357Z,100240.53
2022-12-08T00:36:44.350Z,100241.31
2022-12-08T00:39:12.969Z,100233.63
2022-12-08T00:41:58.217Z,100236.06
2022-12-08T00:44:24.809Z,100231.03
2022-12-08T00:46:51.347Z,100231.03
2022-12-08T00:49:17.889Z,100219.91
2022-12-08T00:51:44.897Z,100229.22
2022-12-08T00:54:11.416Z,100230.94
2022-12-08T00:56:38.330Z,100219.00
2022-12-08T00:59:06.449Z,100214.81
2022-12-08T01:01:34.217Z,100216.53
2022-12-08T01:04:08.338Z,100217.38
2022-12-08T01:06:35.864Z,100220.84
2022-12-08T01:09:04.509Z,100221.66
2022-12-08T01:11:31.113Z,100222.59
2022-12-08T01:13:57.409Z,100214.06
2022-12-08T01:16:27.075Z,100210.63
2022-12-08T01:18:54.313Z,100217.50
2022-12-08T01:21:21.798Z,100215.81
2022-12-08T01:23:48.107Z,100212.38
2022-12-08T01:26:16.957Z,100211.50
2022-12-08T01:28:45.982Z,100210.69
2022-12-08T01:31:14.743Z,100204.75
2022-12-08T01:33:41.641Z,100206.44
2022-12-08T01:36:09.375Z,100203.03
2022-12-08T01:38:35.715Z,100201.38
2022-12-08T01:41:02.197Z,100201.47
2022-12-08T01:43:47.494Z,100192.88
2022-12-08T01:46:13.849Z,100195.31
2022-12-08T01:48:40.577Z,100191.94
2022-12-08T01:51:07.307Z,100187.66
2022-12-08T01:53:33.774Z,100179.13
2022-12-08T01:56:09.056Z,100182.56
2022-12-08T01:58:39.978Z,100177.53
2022-12-08T02:01:07.593Z,100175.84
2022-12-08T02:03:45.433Z,100178.38
2022-12-08T02:06:11.872Z,100175.84
2022-12-08T02:08:40.302Z,100169.72
2022-12-08T02:11:10.126Z,100174.91
2022-12-08T02:13:36.539Z,100163.00
2022-12-08T02:16:45.126Z,100163.84
2022-12-08T02:19:38.005Z,100165.56
2022-12-08T02:22:07.193Z,100157.78
2022-12-08T02:24:52.384Z,100162.09
2022-12-08T02:27:42.981Z,100151.03
2022-12-08T02:30:15.305Z,100157.06
2022-12-08T02:32:55.862Z,100152.75
2022-12-08T02:35:43.804Z,100143.34
2022-12-08T02:38:17.137Z,100143.38
2022-12-08T02:40:49.535Z,100143.38
2022-12-08T02:43:32.109Z,100136.50
2022-12-08T02:46:05.495Z,100138.25
2022-12-08T02:48:33.739Z,100131.41
2022-12-08T02:51:00.064Z,100129.75
2022-12-08T02:53:30.257Z,100133.16
2022-12-08T02:56:07.078Z,100130.69
2022-12-08T02:59:00.696Z,100128.06
2022-12-08T03:01:48.808Z,100128.09
2022-12-08T03:04:41.719Z,100126.41
2022-12-08T03:07:21.201Z,100114.50
2022-12-08T03:10:03.290Z,100114.50
2022-12-08T03:12:58.987Z,100116.28
2022-12-08T03:15:25.580Z,100112.84
2022-12-08T03:17:57.254Z,100104.28
2022-12-08T03:20:26.172Z,100106.84
2022-12-08T03:22:55.634Z,100100.94
2022-12-08T03:25:25.836Z,100103.53
2022-12-08T03:27:53.521Z,100108.63
2022-12-08T03:30:20.002Z,100095.03
2022-12-08T03:33:03.549Z,100095.91
2022-12-08T03:35:33.301Z,100091.63
2022-12-08T03:38:06.954Z,100091.59
2022-12-08T03:40:33.839Z,100094.19
2022-12-08T03:43:00.185Z,100086.47
2022-12-08T03:45:26.545Z,100086.47
2022-12-08T03:47:52.874Z,100087.38
2022-12-08T03:50:19.179Z,100083.09
2022-12-08T03:52:45.618Z,100085.72
2022-12-08T03:55:11.959Z,100072.84
2022-12-08T03:57:38.418Z,100076.28
2022-12-08T04:00:07.278Z,100078.03
2022-12-08T04:02:33.831Z,100077.16
2022-12-08T04:05:00.192Z,100076.31
2022-12-08T04:07:26.563Z,100074.59
2022-12-08T04:09:52.840Z,100064.38
2022-12-08T04:12:19.112Z,100064.34
2022-12-08T04:14:45.396Z,100058.44
2022-12-08T04:17:11.711Z,100063.59
2022-12-08T04:19:38.060Z,100061.81
2022-12-08T04:22:04.360Z,100062.69
2022-12-08T04:24:30.648Z,100052.41
2022-12-08T04:26:56.943Z,100055.00
2022-12-08T04:29:23.291Z,100056.69
2022-12-08T04:31:49.685Z,100051.69
2022-12-08T04:34:16.063Z,100058.53
2022-12-08T04:36:42.401Z,100046.53
2022-12-08T04:39:08.726Z,100055.09
2022-12-08T04:41:35.029Z,100049.09
2022-12-08T04:44:01.317Z,100051.69
2022-12-08T04:46:27.734Z,100061.13
2022-12-08T04:48:54.110Z,100051.69
2022-12-08T04:51:21.417Z,100055.09
2022-12-08T04:53:48.025Z,100059.44
2022-12-08T04:56:17.091Z,100058.56
2022-12-08T04:58:43.969Z,100062.81
2022-12-08T05:01:10.861Z,100051.69
2022-12-08T05:03:37.635Z,100043.22
2022-12-08T05:06:05.037Z,100050.94
2022-12-08T05:08:32.511Z,100042.38
2022-12-08T05:11:05.063Z,100043.22
2022-12-08T05:13:31.636Z,100040.63
2022-12-08T05:16:09.886Z,100044.03
2022-12-08T05:18:37.013Z,100050.03
2022-12-08T05:21:04.477Z,100038.91
2022-12-08T05:23:30.858Z,100043.13
2022-12-08T05:25:57.472Z,100043.94
2022-12-08T05:31:15.147Z,100043.94
2022-12-08T05:33:41.746Z,100045.66
2022-12-08T05:36:08.756Z,100046.53
2022-12-08T05:38:35.220Z,100056.84
2022-12-08T05:41:01.741Z,100056.84
2022-12-08T05:43:28.139Z,100054.28
2022-12-08T05:45:54.641Z,100058.56
2022-12-08T05:48:21.031Z,100059.44
2022-12-08T05:50:48.235Z,100052.59
2022-12-08T05:53:15.864Z,100053.44
2022-12-08T05:55:42.534Z,100057.75
2022-12-08T05:58:15.615Z,100056.84
2022-12-08T06:00:42.390Z,100059.44
2022-12-08T06:03:10.822Z,100070.56
2022-12-08T06:05:37.302Z,100059.38
2022-12-08T06:08:04.049Z,100058.56
2022-12-08T06:10:30.433Z,100064.56
2022-12-08T06:12:56.900Z,100059.47
2022-12-08T06:15:23.195Z,100056.84
2022-12-08T06:17:49.528Z,100056.84
2022-12-08T06:20:15.942Z,100058.56
2022-12-08T06:22:42.327Z,100060.28
2022-12-08T06:25:10.226Z,100061.13
2022-12-08T06:27:36.696Z,100058.53
2022-12-08T06:30:04.258Z,100068.78
2022-12-08T06:32:31.003Z,100071.31
2022-12-08T06:34:57.369Z,100073.03
2022-12-08T06:37:23.669Z,100072.19
2022-12-08T06:39:49.956Z,100076.44
2022-12-08T06:42:34.902Z,100071.28
2022-12-08T06:45:01.293Z,100072.13
2022-12-08T06:47:27.713Z,100075.53
2022-12-08T06:49:54.095Z,100072.97
2022-12-08T06:52:20.379Z,100079.03
2022-12-08T06:54:46.645Z,100087.59
2022-12-08T06:57:12.939Z,100079.09
2022-12-08T06:59:39.628Z,100079.09
2022-12-08T07:02:06.050Z,100080.91
2022-12-08T07:04:32.442Z,100087.72
2022-12-08T07:06:58.703Z,100081.72
2022-12-08T07:09:24.985Z,100080.78
2022-12-08T07:11:51.264Z,100081.63
2022-12-08T07:14:17.645Z,100089.38
2022-12-08T07:16:44.005Z,100088.53
2022-12-08T07:19:11.077Z,100084.25
2022-12-08T07:21:37.349Z,100085.88
2022-12-08T07:24:03.785Z,100084.28
2022-12-08T07:26:30.179Z,100079.94
2022-12-08T07:28:56.565Z,100082.50
2022-12-08T07:31:25.080Z,100089.34
2022-12-08T07:33:52.548Z,100082.50
2022-12-08T07:36:19.258Z,100085.09
2022-12-08T07:38:45.650Z,100085.06
2022-12-08T07:41:16.791Z,100087.69
2022-12-08T07:43:43.141Z,100086.06
2022-12-08T07:46:14.223Z,100080.94
2022-12-08T07:48:40.851Z,100086.06
2022-12-08T07:51:07.384Z,100086.03
2022-12-08T07:53:33.696Z,100077.47
2022-12-08T07:56:00.315Z,100084.38
2022-12-08T07:58:27.544Z,100092.97
2022-12-08T08:00:53.983Z,100086.03
2022-12-08T08:03:21.881Z,100084.34
2022-12-08T08:05:49.920Z,100086.88
2022-12-08T08:08:17.165Z,100092.84
2022-12-08T08:10:44.555Z,100088.63
2022-12-08T08:13:10.830Z,100088.63
2022-12-08T08:15:37.281Z,100098.94
2022-12-08T08:18:04.181Z,100089.53
2022-12-08T08:20:30.560Z,100097.16
2022-12-08T08:22:57.014Z,100104.81
2022-12-08T08:25:23.390Z,100105.72
2022-12-08T08:27:49.823Z,100099.72
2022-12-08T08:30:20.346Z,100098.88
2022-12-08T08:32:47.379Z,100108.22
2022-12-08T08:35:13.744Z,100104.84
2022-12-08T08:37:43.124Z,100114.25
2022-12-08T08:40:13.435Z,100115.88
2022-12-08T08:42:39.875Z,100115.81
2022-12-08T08:45:06.631Z,100115.81
2022-12-08T08:47:33.158Z,100114.94
2022-12-08T08:49:59.486Z,100118.38
2022-12-08T08:52:25.853Z,100120.09
2022-12-08T08:54:52.172Z,100120.00
2022-12-08T08:57:23.662Z,100117.47
2022-12-08T08:59:51.721Z,100124.31
2022-12-08T09:02:19.033Z,100128.53
2022-12-08T09:04:46.018Z,100122.44
2022-12-08T09:07:13.197Z,100125.00
2022-12-08T09:09:40.297Z,100123.31
2022-12-08T09:12:07.678Z,100126.72
2022-12-08T09:14:34.216Z,100119.03
2022-12-08T09:17:00.536Z,100129.25
2022-12-08T09:19:26.827Z,100126.66
2022-12-08T09:21:53.273Z,100128.28
2022-12-08T09:24:19.631Z,100133.34
2022-12-08T09:26:46.983Z,100132.50
2022-12-08T09:29:14.544Z,100135.81
2022-12-08T09:31:41.914Z,100133.16
2022-12-08T09:34:08.312Z,100138.25
2022-12-08T09:36:34.595Z,100133.94
2022-12-08T09:39:00.880Z,100138.25
2022-12-08T09:41:39.258Z,100139.00
2022-12-08T09:44:30.140Z,100131.31
2022-12-08T09:46:58.603Z,100143.25
2022-12-08T09:49:36.649Z,100136.44
2022-12-08T09:52:04.109Z,100139.84
2022-12-08T09:54:35.776Z,100139.03
2022-12-08T09:57:07.246Z,100142.41
2022-12-08T09:59:34.844Z,100138.94
2022-12-08T10:02:02.760Z,100133.88
2022-12-08T10:04:29.165Z,100129.56
2022-12-08T10:07:17.968Z,100135.63
2022-12-08T10:09:55.293Z,100133.94
2022-12-08T10:12:40.269Z,100131.34
2022-12-08T10:15:28.321Z,100135.66
2022-12-08T10:17:56.079Z,100145.94
2022-12-08T10:20:25.518Z,100141.75
2022-12-08T10:23:27.145Z,100141.91
2022-12-08T10:26:05.988Z,100144.47
2022-12-08T10:28:34.257Z,100146.19
2022-12-08T10:31:00.626Z,100147.88
2022-12-08T10:33:29.104Z,100143.59
2022-12-08T10:36:02.973Z,100145.34
2022-12-08T10:38:34.749Z,100145.34
2022-12-08T10:41:10.619Z,100132.53
2022-12-08T10:43:43.598Z,100142.75
2022-12-08T10:46:12.685Z,100146.22
2022-12-08T10:49:10.364Z,100141.94
2022-12-08T10:51:40.199Z,100143.66
2022-12-08T10:54:26.407Z,100150.47
2022-12-08T10:56:57.137Z,100141.91
2022-12-08T10:59:25.529Z,100145.34
2022-12-08T11:01:54.859Z,100151.25
2022-12-08T11:04:29.563Z,100147.00
2022-12-08T11:06:56.021Z,100143.56
2022-12-08T11:09:30.780Z,100139.38
2022-12-08T11:12:09.455Z,100146.28
2022-12-08T11:14:44.790Z,100143.78
2022-12-08T11:17:23.496Z,100153.16
2022-12-08T11:20:18.667Z,100154.06
2022-12-08T11:22:50.700Z,100159.19
2022-12-08T11:25:29.559Z,100156.75
2022-12-08T11:28:01.100Z,100151.56
2022-12-08T11:30:36.122Z,100158.31
2022-12-08T11:33:27.034Z,100148.88
2022-12-08T11:36:06.176Z,100148.03
2022-12-08T11:38:35.217Z,100145.47
2022-12-08T11:41:12.282Z,100148.91
2022-12-08T11:44:09.688Z,100150.56
2022-12-08T11:46:59.663Z,100153.94
2022-12-08T11:49:35.759Z,100148.78
2022-12-08T11:52:26.369Z,100152.97
2022-12-08T11:55:02.619Z,100145.13
2022-12-08T11:57:29.655Z,100147.81
2022-12-08T11:59:58.016Z,100141.88
2022-12-08T12:02:28.641Z,100149.59
2022-12-08T12:05:08.370Z,100154.72
2022-12-08T12:07:52.962Z,100147.91
2022-12-08T12:10:38.854Z,100154.84
2022-12-08T12:13:39.368Z,100149.75
2022-12-08T12:16:17.523Z,100156.63
2022-12-08T12:18:48.977Z,100154.88
2022-12-08T12:21:48.292Z,100156.59
2022-12-08T12:24:14.526Z,100164.31
2022-12-08T12:26:55.763Z,100163.38
2022-12-08T12:29:25.906Z,100163.22
2022-12-08T12:31:56.895Z,100163.22
2022-12-08T12:34:29.723Z,100165.91
2022-12-08T12:37:21.440Z,100169.28
2022-12-08T12:39:55.837Z,100168.56
2022-12-08T12:42:43.924Z,100171.13
2022-12-08T12:45:16.357Z,100167.81
2022-12-08T12:48:06.018Z,100171.19
2022-12-08T12:50:36.915Z,100169.56
2022-12-08T12:53:26.235Z,100171.38
2022-12-08T12:56:03.705Z,100164.53
2022-12-08T12:58:30.026Z,100164.56
2022-12-08T13:01:11.973Z,100163.66
2022-12-08T13:04:04.521Z,100165.34
2022-12-08T13:06:50.344Z,100171.44
2022-12-08T13:09:41.399Z,100168.00
2022-12-08T13:12:11.310Z,100167.94
2022-12-08T13:14:46.687Z,100164.56
2022-12-08T13:17:20.424Z,100158.50
2022-12-08T13:19:51.721Z,100161.88
2022-12-08T13:22:46.340Z,100155.09
2022-12-08T13:25:45.256Z,100163.66
2022-12-08T13:28:19.641Z,100162.03
2022-12-08T13:30:51.466Z,100162.84
2022-12-08T13:33:24.053Z,100166.19
2022-12-08T13:36:14.801Z,100167.03
2022-12-08T13:38:45.547Z,100167.06
2022-12-08T13:41:22.377Z,100172.22
2022-12-08T13:44:44.176Z,100168.81
2022-12-08T13:58:28.419Z,100181.69
2022-12-08T14:01:08.741Z,100185.16
2022-12-08T14:04:12.418Z,100191.09
2022-12-08T14:06:41.562Z,100193.28
2022-12-08T14:09:15.914Z,100195.03
2022-12-08T14:11:48.134Z,100186.41
2022-12-08T14:14:32.652Z,100191.59
2022-12-08T14:17:06.239Z,100193.34
2022-12-08T14:19:34.678Z,100192.59
2022-12-08T14:22:09.255Z,100189.94
2022-12-08T14:24:35.709Z,100195.97
2022-12-08T14:27:05.316Z,100198.41
2022-12-08T14:29:56.576Z,100200.97
2022-12-08T14:32:35.132Z,100201.91
2022-12-08T14:35:18.013Z,100207.81
2022-12-08T14:37:47.804Z,100212.84
2022-12-08T14:40:38.007Z,100203.69
2022-12-08T14:43:10.249Z,100210.78
2022-12-08T14:45:42.598Z,100204.03
2022-12-08T14:48:38.323Z,100212.47
2022-12-08T14:51:19.436Z,100215.81
2022-12-08T14:53:54.275Z,100222.72
2022-12-08T14:56:25.566Z,100220.88
2022-12-08T14:59:30.125Z,100222.53
2022-12-08T15:02:11.138Z,100220.97
2022-12-08T15:04:40.113Z,100229.38
2022-12-08T15:07:17.088Z,100229.28
2022-12-08T15:09:47.044Z,100226.84
2022-12-08T15:12:13.258Z,100229.25
2022-12-08T15:14:58.071Z,100232.63
2022-12-08T15:17:44.841Z,100232.56
2022-12-08T15:20:34.829Z,100236.72
2022-12-08T15:23:02.265Z,100237.56
2022-12-08T15:25:28.654Z,100238.47
2022-12-08T15:27:56.426Z,100237.53
2022-12-08T15:30:23.268Z,100242.84
2022-12-08T15:32:52.130Z,100248.88
2022-12-08T15:35:18.571Z,100258.28
2022-12-08T15:37:46.186Z,100265.13
2022-12-08T15:40:21.226Z,100269.31
2022-12-08T15:42:47.848Z,100266.00
2022-12-08T15:45:15.315Z,100264.44
2022-12-08T15:47:42.671Z,100268.69
2022-12-08T15:50:20.823Z,100270.38
2022-12-08T15:52:47.962Z,100273.03
2022-12-08T15:55:16.016Z,100269.53
2022-12-08T16:00:54.891Z,100266.88
2022-12-08T16:09:14.158Z,100263.75
2022-12-08T16:12:09.503Z,100257.00
2022-12-08T16:17:24.487Z,100258.50
2022-12-08T16:19:51.118Z,100272.19
2022-12-08T16:25:23.684Z,100266.03
2022-12-08T16:28:08.444Z,100258.38
2022-12-08T16:30:39.320Z,100263.44
2022-12-08T16:33:05.988Z,100267.63
2022-12-08T16:35:32.396Z,100274.31
2022-12-08T16:37:59.036Z,100265.03
2022-12-08T16:40:25.512Z,100270.28
2022-12-08T16:42:51.850Z,100267.69
2022-12-08T16:45:27.524Z,100273.69
2022-12-08T16:47:56.584Z,100271.00
2022-12-08T16:50:29.651Z,100270.25
2022-12-08T16:53:01.766Z,100264.84
2022-12-08T16:55:28.867Z,100267.31
2022-12-08T16:57:55.933Z,100262.09
2022-12-08T17:00:25.166Z,100272.44
2022-12-08T17:02:52.152Z,100280.81
2022-12-08T17:05:21.544Z,100284.25
2022-12-08T17:07:50.172Z,100301.97
2022-12-08T17:10:28.283Z,100292.50
2022-12-08T17:12:55.538Z,100301.00
2022-12-08T17:15:24.957Z,100297.69
2022-12-08T17:17:51.978Z,100300.19
2022-12-08T17:20:21.790Z,100307.00
2022-12-08T17:22:48.804Z,100298.53
2022-12-08T17:25:15.827Z,100305.44
2022-12-08T17:27:42.570Z,100304.63
2022-12-08T17:30:11.605Z,100307.03
2022-12-08T17:32:38.763Z,100304.47
2022-12-08T17:35:06.139Z,100297.97
2022-12-08T17:37:33.218Z,100298.78
2022-12-08T17:39:59.522Z,100300.59
2022-12-08T17:42:27.107Z,100298.13
2022-12-08T17:44:54.543Z,100292.94
2022-12-08T17:47:21.407Z,100297.22
2022-12-08T17:49:47.875Z,100296.38
2022-12-08T17:52:14.266Z,100295.50
2022-12-08T17:54:40.649Z,100299.53
2022-12-08T17:57:06.985Z,100295.94
2022-12-08T17:59:33.385Z,100299.31
2022-12-08T18:02:00.116Z,100301.81
2022-12-08T18:04:28.644Z,100300.91
2022-12-08T18:06:55.108Z,100300.06
2022-12-08T18:09:21.641Z,100301.00
2022-12-08T18:11:48.155Z,100295.03
2022-12-08T18:14:15.858Z,100298.38
2022-12-08T18:16:44.832Z,100293.97
2022-12-08T18:19:12.496Z,100291.34
2022-12-08T18:21:39.770Z,100296.53
2022-12-08T18:24:07.244Z,100287.03
2022-12-08T18:26:34.020Z,100296.31
2022-12-08T18:29:00.891Z,100284.53
2022-12-08T18:31:27.437Z,100290.50
2022-12-08T18:33:54.015Z,100286.34
2022-12-08T18:36:24.845Z,100291.25
2022-12-08T18:38:52.523Z,100289.56
2022-12-08T18:41:25.604Z,100288.78
2022-12-08T18:43:53.361Z,100286.97
2022-12-08T18:46:19.884Z,100289.38
2022-12-08T18:48:48.896Z,100295.25
2022-12-08T18:51:20.958Z,100285.81
2022-12-08T18:53:48.126Z,100295.19
2022-12-08T18:56:29.654Z,100296.81
2022-12-08T18:59:02.954Z,100304.41
2022-12-08T19:01:30.897Z,100313.72
2022-12-08T19:04:34.755Z,100303.50
2022-12-08T19:06:49.852Z,100310.41
2022-12-08T19:09:16.749Z,100305.16
2022-12-08T19:11:43.195Z,100313.00
2022-12-08T19:14:09.980Z,100302.84
2022-12-08T19:16:37.023Z,100309.78
2022-12-08T19:19:04.209Z,100309.88
2022-12-08T19:21:31.379Z,100312.53
2022-12-08T19:23:58.486Z,100315.88
2022-12-08T19:26:26.967Z,100307.47
2022-12-08T19:28:53.404Z,100309.97
2022-12-08T19:31:19.844Z,100318.47
2022-12-08T19:33:46.297Z,100323.59
2022-12-08T19:36:16.396Z,100317.69
2022-12-08T19:39:01.375Z,100324.66
2022-12-08T19:41:46.760Z,100322.84
2022-12-08T19:44:43.357Z,100318.69
2022-12-08T19:47:09.865Z,100324.03
2022-12-08T19:49:36.987Z,100322.25
2022-12-08T19:52:04.015Z,100323.16
2022-12-08T19:54:30.487Z,100324.81
2022-12-08T19:56:56.987Z,100328.28
2022-12-08T19:59:27.504Z,100329.13
2022-12-08T20:01:55.670Z,100330.81
2022-12-08T20:04:23.987Z,100334.25
2022-12-08T20:06:51.850Z,100330.91
2022-12-08T20:09:20.336Z,100335.03
2022-12-08T20:11:46.642Z,100328.97
2022-12-08T20:14:12.980Z,100343.47
2022-12-08T20:16:41.542Z,100340.88
2022-12-08T20:19:08.106Z,100341.91
2022-12-08T20:21:34.422Z,100338.28
2022-12-08T20:24:00.777Z,100341.47
2022-12-08T20:26:27.173Z,100343.06
2022-12-08T20:28:53.567Z,100336.13
2022-12-08T20:31:24.842Z,100341.25
2022-12-08T20:33:51.672Z,100343.69
2022-12-08T20:36:20.401Z,100343.50
2022-12-08T20:38:48.701Z,100344.31
2022-12-08T20:41:16.008Z,100350.28
2022-12-08T20:43:43.424Z,100345.97
2022-12-08T20:46:11.363Z,100348.47
2022-12-08T20:48:37.944Z,100350.22
2022-12-08T20:51:04.759Z,100346.94
2022-12-08T20:53:31.146Z,100345.19
2022-12-08T20:55:57.808Z,100352.03
2022-12-08T20:58:24.167Z,100353.09
2022-12-08T21:00:50.885Z,100342.78
2022-12-08T21:03:18.622Z,100346.19
2022-12-08T21:05:51.764Z,100359.97
2022-12-08T21:08:19.666Z,100355.81
2022-12-08T21:10:52.302Z,100358.47
2022-12-08T21:13:18.585Z,100350.81
2022-12-08T21:15:46.526Z,100354.19
2022-12-08T21:18:13.670Z,100347.28
2022-12-08T21:20:40.222Z,100352.28
2022-12-08T21:23:06.556Z,100342.81
2022-12-08T21:25:33.022Z,100353.94
2022-12-08T21:27:59.516Z,100355.63
2022-12-08T21:30:25.817Z,100346.25
2022-12-08T21:32:52.259Z,100353.09
2022-12-08T21:35:18.686Z,100351.44
2022-12-08T21:37:45.036Z,100362.53
2022-12-08T21:40:12.367Z,100356.59
2022-12-08T21:42:45.142Z,100352.41
2022-12-08T21:45:14.236Z,100366.84
2022-12-08T21:47:40.783Z,100363.44
2022-12-08T21:50:08.212Z,100362.59
2022-12-08T21:52:39.724Z,100357.53
2022-12-08T21:55:07.546Z,100358.31
2022-12-08T21:57:34.524Z,100360.81
2022-12-08T22:00:01.155Z,100363.25
2022-12-08T22:02:27.633Z,100365.78
2022-12-08T22:04:54.536Z,100368.31
2022-12-08T22:07:21.119Z,100359.75
2022-12-08T22:09:47.610Z,100364.88
2022-12-08T22:12:16.454Z,100369.22
2022-12-08T22:14:43.888Z,100365.66
2022-12-08T22:17:10.584Z,100359.66
2022-12-08T22:19:37.491Z,100364.59
2022-12-08T22:22:03.902Z,100367.16
2022-12-08T22:24:31.485Z,100363.50
2022-12-08T22:26:57.951Z,100366.88
2022-12-08T22:29:24.536Z,100369.53
2022-12-08T22:31:50.931Z,100372.91
2022-12-08T22:34:17.320Z,100376.38
2022-12-08T22:36:44.343Z,100367.84
2022-12-08T22:39:10.957Z,100377.34
2022-12-08T22:41:37.392Z,100379.97
2022-12-08T22:44:07.301Z,100374.06
2022-12-08T22:46:33.911Z,100372.28
2022-12-08T22:49:00.692Z,100374.97
2022-12-08T22:51:27.062Z,100376.59
2022-12-08T22:53:53.797Z,100373.22
2022-12-08T22:56:20.256Z,100373.19
2022-12-08T22:58:46.883Z,100384.34
2022-12-08T23:01:29.542Z,100382.78
2022-12-08T23:03:56.860Z,100386.25
2022-12-08T23:06:24.705Z,100376.69
2022-12-08T23:08:52.183Z,100384.38
2022-12-08T23:11:19.743Z,100380.91
2022-12-08T23:13:46.626Z,100383.34
2022-12-08T23:16:13.344Z,100385.88
2022-12-08T23:18:44.621Z,100385.16
2022-12-08T23:21:14.782Z,100387.63
2022-12-08T23:23:41.160Z,100380.03
2022-12-08T23:26:34.983Z,100369.84
2022-12-08T23:29:01.696Z,100375.03
2022-12-08T23:31:28.354Z,100374.19
2022-12-08T23:33:55.182Z,100370.09
2022-12-08T23:36:22.671Z,100364.91
2022-12-08T23:38:49.160Z,100366.69
2022-12-08T23:41:16.046Z,100365.88
2022-12-08T23:43:47.921Z,100356.31
2022-12-08T23:46:16.015Z,100356.38
2022-12-08T23:48:43.272Z,100358.03
2022-12-08T23:51:10.555Z,100358.75
2022-12-08T23:53:37.393Z,100371.44
2022-12-08T23:56:07.427Z,100357.78
2022-12-08T23:58:34.456Z,100357.78
